sensor_id;sensor_type;location;lat;lon;timestamp;temperature;humidity
8008;DHT22;4049;49.468;11.200;2023-02-28T00:00:00;-4.00;99.90
8008;DHT22;4049;49.468;11.200;2023-02-28T00:02:33;-4.00;99.90
8008;DHT22;4049;49.468;11.200;2023-02-28T00:05:00;-4.00;99.90
8008;DHT22;4049;49.468;11.200;2023-02-28T00:07:29;-4.00;99.90
8008;DHT22;4049;49.468;11.200;2023-02-28T00:09:55;-3.90;99.90
8008;DHT22;4049;49.468;11.200;2023-02-28T00:12:22;-3.90;99.90
8008;DHT22;4049;49.468;11.200;2023-02-28T00:14:51;-3.90;99.90
8008;DHT22;4049;49.468;11.200;2023-02-28T00:17:18;-3.90;99.90
8008;DHT22;4049;49.468;11.200;2023-02-28T00:19:46;-3.90;99.90
8008;DHT22;4049;49.468;11.200;2023-02-28T00:22:13;-3.90;99.90
8008;DHT22;4049;49.468;11.200;2023-02-28T00:24:40;-3.90;99.90
8008;DHT22;4049;49.468;11.200;2023-02-28T00:27:07;-3.90;99.90
8008;DHT22;4049;49.468;11.200;2023-02-28T00:29:34;-3.90;99.90
8008;DHT22;4049;49.468;11.200;2023-02-28T00:32:03;-3.90;99.90
8008;DHT22;4049;49.468;11.200;2023-02-28T00:34:30;-3.90;99.90
8008;DHT22;4049;49.468;11.200;2023-02-28T00:36:58;-3.90;99.90
8008;DHT22;4049;49.468;11.200;2023-02-28T00:39:24;-3.90;99.90
8008;DHT22;4049;49.468;11.200;2023-02-28T00:41:51;-3.90;99.90
8008;DHT22;4049;49.468;11.200;2023-02-28T00:44:18;-3.80;99.90
8008;DHT22;4049;49.468;11.200;2023-02-28T00:46:46;-3.80;99.90
8008;DHT22;4049;49.468;11.200;2023-02-28T00:49:15;-3.80;99.90
8008;DHT22;4049;49.468;11.200;2023-02-28T00:51:41;-3.80;99.90
8008;DHT22;4049;49.468;11.200;2023-02-28T00:54:08;-3.80;99.90
8008;DHT22;4049;49.468;11.200;2023-02-28T00:56:35;-3.70;99.90
8008;DHT22;4049;49.468;11.200;2023-02-28T00:59:02;-3.70;99.90
8008;DHT22;4049;49.468;11.200;2023-02-28T01:01:28;-3.70;99.90
8008;DHT22;4049;49.468;11.200;2023-02-28T01:03:55;-3.70;99.90
8008;DHT22;4049;49.468;11.200;2023-02-28T01:06:23;-3.60;99.90
8008;DHT22;4049;49.468;11.200;2023-02-28T01:08:50;-3.60;99.90
8008;DHT22;4049;49.468;11.200;2023-02-28T01:11:18;-3.60;99.90
8008;DHT22;4049;49.468;11.200;2023-02-28T01:13:45;-3.50;99.90
8008;DHT22;4049;49.468;11.200;2023-02-28T01:16:13;-3.50;99.90
8008;DHT22;4049;49.468;11.200;2023-02-28T01:18:40;-3.50;99.90
8008;DHT22;4049;49.468;11.200;2023-02-28T01:21:08;-3.50;99.90
8008;DHT22;4049;49.468;11.200;2023-02-28T01:23:37;-3.50;99.90
8008;DHT22;4049;49.468;11.200;2023-02-28T01:26:05;-3.50;99.90
8008;DHT22;4049;49.468;11.200;2023-02-28T01:28:31;-3.40;99.90
8008;DHT22;4049;49.468;11.200;2023-02-28T01:30:58;-3.40;99.90
8008;DHT22;4049;49.468;11.200;2023-02-28T01:33:25;-3.40;99.90
8008;DHT22;4049;49.468;11.200;2023-02-28T01:35:57;-3.40;99.90
8008;DHT22;4049;49.468;11.200;2023-02-28T01:38:25;-3.40;99.90
8008;DHT22;4049;49.468;11.200;2023-02-28T01:40:53;-3.30;99.90
8008;DHT22;4049;49.468;11.200;2023-02-28T01:43:22;-3.30;99.90
8008;DHT22;4049;49.468;11.200;2023-02-28T01:45:49;-3.30;99.90
8008;DHT22;4049;49.468;11.200;2023-02-28T01:48:17;-3.30;99.90
8008;DHT22;4049;49.468;11.200;2023-02-28T01:50:45;-3.30;99.90
8008;DHT22;4049;49.468;11.200;2023-02-28T01:53:18;-3.30;99.90
8008;DHT22;4049;49.468;11.200;2023-02-28T01:55:48;-3.30;99.90
8008;DHT22;4049;49.468;11.200;2023-02-28T01:58:18;-3.30;99.90
8008;DHT22;4049;49.468;11.200;2023-02-28T02:00:44;-3.30;99.90
8008;DHT22;4049;49.468;11.200;2023-02-28T02:03:14;-3.20;99.90
8008;DHT22;4049;49.468;11.200;2023-02-28T02:05:44;-3.30;99.90
8008;DHT22;4049;49.468;11.200;2023-02-28T02:08:15;-3.30;99.90
8008;DHT22;4049;49.468;11.200;2023-02-28T02:10:44;-3.20;99.90
8008;DHT22;4049;49.468;11.200;2023-02-28T02:13:31;-3.20;99.90
8008;DHT22;4049;49.468;11.200;2023-02-28T02:16:06;-3.20;99.90
8008;DHT22;4049;49.468;11.200;2023-02-28T02:18:43;-3.20;99.90
8008;DHT22;4049;49.468;11.200;2023-02-28T02:24:38;-3.20;99.90
8008;DHT22;4049;49.468;11.200;2023-02-28T02:27:20;-3.10;99.90
8008;DHT22;4049;49.468;11.200;2023-02-28T02:30:20;-3.10;99.90
8008;DHT22;4049;49.468;11.200;2023-02-28T02:33:26;-3.20;99.90
8008;DHT22;4049;49.468;11.200;2023-02-28T02:36:00;-3.10;99.90
8008;DHT22;4049;49.468;11.200;2023-02-28T02:38:32;-3.10;99.90
8008;DHT22;4049;49.468;11.200;2023-02-28T02:41:08;-3.10;99.90
8008;DHT22;4049;49.468;11.200;2023-02-28T02:43:38;-3.10;99.90
8008;DHT22;4049;49.468;11.200;2023-02-28T02:46:10;-3.10;99.90
8008;DHT22;4049;49.468;11.200;2023-02-28T02:48:40;-3.10;99.90
8008;DHT22;4049;49.468;11.200;2023-02-28T02:51:14;-3.10;99.90
8008;DHT22;4049;49.468;11.200;2023-02-28T02:53:44;-3.10;99.90
8008;DHT22;4049;49.468;11.200;2023-02-28T02:56:13;-3.10;99.90
8008;DHT22;4049;49.468;11.200;2023-02-28T02:58:42;-3.10;99.90
8008;DHT22;4049;49.468;11.200;2023-02-28T03:01:13;-3.10;99.90
8008;DHT22;4049;49.468;11.200;2023-02-28T03:03:41;-3.10;99.90
8008;DHT22;4049;49.468;11.200;2023-02-28T03:06:08;-3.10;99.90
8008;DHT22;4049;49.468;11.200;2023-02-28T03:08:38;-3.10;99.90
8008;DHT22;4049;49.468;11.200;2023-02-28T03:11:06;-3.10;99.90
8008;DHT22;4049;49.468;11.200;2023-02-28T03:13:51;-3.10;99.90
8008;DHT22;4049;49.468;11.200;2023-02-28T03:16:31;-3.10;99.90
8008;DHT22;4049;49.468;11.200;2023-02-28T03:19:11;-3.10;99.90
8008;DHT22;4049;49.468;11.200;2023-02-28T03:21:43;-3.20;99.90
8008;DHT22;4049;49.468;11.200;2023-02-28T03:24:15;-3.20;99.90
8008;DHT22;4049;49.468;11.200;2023-02-28T03:26:47;-3.20;99.90
8008;DHT22;4049;49.468;11.200;2023-02-28T03:29:23;-3.20;99.90
8008;DHT22;4049;49.468;11.200;2023-02-28T03:31:54;-3.20;99.90
8008;DHT22;4049;49.468;11.200;2023-02-28T03:34:29;-3.20;99.90
8008;DHT22;4049;49.468;11.200;2023-02-28T03:37:01;-3.30;99.90
8008;DHT22;4049;49.468;11.200;2023-02-28T03:39:35;-3.30;99.90
8008;DHT22;4049;49.468;11.200;2023-02-28T03:42:06;-3.20;99.90
8008;DHT22;4049;49.468;11.200;2023-02-28T03:44:38;-3.30;99.90
8008;DHT22;4049;49.468;11.200;2023-02-28T03:47:09;-3.30;99.90
8008;DHT22;4049;49.468;11.200;2023-02-28T03:49:40;-3.30;99.90
8008;DHT22;4049;49.468;11.200;2023-02-28T03:52:09;-3.30;99.90
8008;DHT22;4049;49.468;11.200;2023-02-28T03:54:41;-3.30;99.90
8008;DHT22;4049;49.468;11.200;2023-02-28T03:57:13;-3.30;99.90
8008;DHT22;4049;49.468;11.200;2023-02-28T03:59:44;-3.20;99.90
8008;DHT22;4049;49.468;11.200;2023-02-28T04:02:11;-3.30;99.90
8008;DHT22;4049;49.468;11.200;2023-02-28T04:04:38;-3.30;99.90
8008;DHT22;4049;49.468;11.200;2023-02-28T04:07:11;-3.30;99.90
8008;DHT22;4049;49.468;11.200;2023-02-28T04:09:40;-3.30;99.90
8008;DHT22;4049;49.468;11.200;2023-02-28T04:12:07;-3.30;99.90
8008;DHT22;4049;49.468;11.200;2023-02-28T04:14:34;-3.30;99.90
8008;DHT22;4049;49.468;11.200;2023-02-28T04:17:01;-3.30;99.90
8008;DHT22;4049;49.468;11.200;2023-02-28T04:19:27;-3.40;99.90
8008;DHT22;4049;49.468;11.200;2023-02-28T04:21:54;-3.30;99.90
8008;DHT22;4049;49.468;11.200;2023-02-28T04:24:23;-3.40;99.90
8008;DHT22;4049;49.468;11.200;2023-02-28T04:26:52;-3.30;99.90
8008;DHT22;4049;49.468;11.200;2023-02-28T04:29:21;-3.40;99.90
8008;DHT22;4049;49.468;11.200;2023-02-28T04:31:48;-3.40;99.90
8008;DHT22;4049;49.468;11.200;2023-02-28T04:34:15;-3.40;99.90
8008;DHT22;4049;49.468;11.200;2023-02-28T04:36:46;-3.40;99.90
8008;DHT22;4049;49.468;11.200;2023-02-28T04:39:16;-3.30;99.90
8008;DHT22;4049;49.468;11.200;2023-02-28T04:41:43;-3.30;99.90
8008;DHT22;4049;49.468;11.200;2023-02-28T04:44:12;-3.40;99.90
8008;DHT22;4049;49.468;11.200;2023-02-28T04:46:38;-3.30;99.90
8008;DHT22;4049;49.468;11.200;2023-02-28T04:49:05;-3.40;99.90
8008;DHT22;4049;49.468;11.200;2023-02-28T04:51:32;-3.30;99.90
8008;DHT22;4049;49.468;11.200;2023-02-28T04:53:59;-3.30;99.90
8008;DHT22;4049;49.468;11.200;2023-02-28T04:56:26;-3.30;99.90
8008;DHT22;4049;49.468;11.200;2023-02-28T04:58:52;-3.30;99.90
8008;DHT22;4049;49.468;11.200;2023-02-28T05:01:23;-3.30;99.90
8008;DHT22;4049;49.468;11.200;2023-02-28T05:03:52;-3.30;99.90
8008;DHT22;4049;49.468;11.200;2023-02-28T05:06:19;-3.30;99.90
8008;DHT22;4049;49.468;11.200;2023-02-28T05:08:47;-3.30;99.90
8008;DHT22;4049;49.468;11.200;2023-02-28T05:11:16;-3.30;99.90
8008;DHT22;4049;49.468;11.200;2023-02-28T05:13:44;-3.30;99.90
8008;DHT22;4049;49.468;11.200;2023-02-28T05:16:11;-3.30;99.90
8008;DHT22;4049;49.468;11.200;2023-02-28T05:18:40;-3.40;99.90
8008;DHT22;4049;49.468;11.200;2023-02-28T05:21:26;-3.30;99.90
8008;DHT22;4049;49.468;11.200;2023-02-28T05:23:54;-3.40;99.90
8008;DHT22;4049;49.468;11.200;2023-02-28T05:26:21;-3.40;99.90
8008;DHT22;4049;49.468;11.200;2023-02-28T05:28:48;-3.40;99.90
8008;DHT22;4049;49.468;11.200;2023-02-28T05:31:15;-3.40;99.90
8008;DHT22;4049;49.468;11.200;2023-02-28T05:33:43;-3.40;99.90
8008;DHT22;4049;49.468;11.200;2023-02-28T05:36:10;-3.40;99.90
8008;DHT22;4049;49.468;11.200;2023-02-28T05:38:37;-3.40;99.90
8008;DHT22;4049;49.468;11.200;2023-02-28T05:41:07;-3.40;99.90
8008;DHT22;4049;49.468;11.200;2023-02-28T05:43:35;-3.50;99.90
8008;DHT22;4049;49.468;11.200;2023-02-28T05:46:03;-3.50;99.90
8008;DHT22;4049;49.468;11.200;2023-02-28T05:48:31;-3.50;99.90
8008;DHT22;4049;49.468;11.200;2023-02-28T05:50:59;-3.50;99.90
8008;DHT22;4049;49.468;11.200;2023-02-28T05:53:26;-3.60;99.90
8008;DHT22;4049;49.468;11.200;2023-02-28T05:55:53;-3.60;99.90
8008;DHT22;4049;49.468;11.200;2023-02-28T05:58:20;-3.60;99.90
8008;DHT22;4049;49.468;11.200;2023-02-28T06:00:47;-3.70;99.90
8008;DHT22;4049;49.468;11.200;2023-02-28T06:03:14;-3.70;99.90
8008;DHT22;4049;49.468;11.200;2023-02-28T06:05:40;-3.70;99.90
8008;DHT22;4049;49.468;11.200;2023-02-28T06:08:08;-3.70;99.90
8008;DHT22;4049;49.468;11.200;2023-02-28T06:10:35;-3.70;99.90
8008;DHT22;4049;49.468;11.200;2023-02-28T06:13:03;-3.70;99.90
8008;DHT22;4049;49.468;11.200;2023-02-28T06:15:30;-3.80;99.90
8008;DHT22;4049;49.468;11.200;2023-02-28T06:17:57;-3.80;99.90
8008;DHT22;4049;49.468;11.200;2023-02-28T06:20:26;-3.80;99.90
8008;DHT22;4049;49.468;11.200;2023-02-28T06:22:55;-3.80;99.90
8008;DHT22;4049;49.468;11.200;2023-02-28T06:25:23;-3.80;99.90
8008;DHT22;4049;49.468;11.200;2023-02-28T06:27:49;-3.80;99.90
8008;DHT22;4049;49.468;11.200;2023-02-28T06:30:16;-3.80;99.90
8008;DHT22;4049;49.468;11.200;2023-02-28T06:32:43;-3.80;99.90
8008;DHT22;4049;49.468;11.200;2023-02-28T06:35:10;-3.80;99.90
8008;DHT22;4049;49.468;11.200;2023-02-28T06:37:37;-3.70;99.90
8008;DHT22;4049;49.468;11.200;2023-02-28T06:40:04;-3.70;99.90
8008;DHT22;4049;49.468;11.200;2023-02-28T06:42:34;-3.70;99.90
8008;DHT22;4049;49.468;11.200;2023-02-28T06:45:01;-3.70;99.90
8008;DHT22;4049;49.468;11.200;2023-02-28T06:47:34;-3.70;99.90
8008;DHT22;4049;49.468;11.200;2023-02-28T06:50:01;-3.70;99.90
8008;DHT22;4049;49.468;11.200;2023-02-28T06:52:28;-3.70;99.90
8008;DHT22;4049;49.468;11.200;2023-02-28T06:54:55;-3.60;99.90
8008;DHT22;4049;49.468;11.200;2023-02-28T06:57:27;-3.60;99.90
8008;DHT22;4049;49.468;11.200;2023-02-28T06:59:57;-3.60;99.90
8008;DHT22;4049;49.468;11.200;2023-02-28T07:02:25;-3.60;99.90
8008;DHT22;4049;49.468;11.200;2023-02-28T07:04:52;-3.50;99.90
8008;DHT22;4049;49.468;11.200;2023-02-28T07:07:18;-3.40;99.90
8008;DHT22;4049;49.468;11.200;2023-02-28T07:09:45;-3.40;99.90
8008;DHT22;4049;49.468;11.200;2023-02-28T07:12:12;-3.30;99.90
8008;DHT22;4049;49.468;11.200;2023-02-28T07:14:39;-3.20;99.90
8008;DHT22;4049;49.468;11.200;2023-02-28T07:17:08;-3.20;99.90
8008;DHT22;4049;49.468;11.200;2023-02-28T07:19:36;-3.10;99.90
8008;DHT22;4049;49.468;11.200;2023-02-28T07:22:03;-3.10;99.90
8008;DHT22;4049;49.468;11.200;2023-02-28T07:24:30;-3.00;99.90
8008;DHT22;4049;49.468;11.200;2023-02-28T07:26:57;-3.00;99.90
8008;DHT22;4049;49.468;11.200;2023-02-28T07:29:24;-2.90;99.90
8008;DHT22;4049;49.468;11.200;2023-02-28T07:31:51;-2.90;99.90
8008;DHT22;4049;49.468;11.200;2023-02-28T07:34:20;-2.80;99.90
8008;DHT22;4049;49.468;11.200;2023-02-28T07:36:48;-2.80;99.90
8008;DHT22;4049;49.468;11.200;2023-02-28T07:39:19;-2.70;99.90
8008;DHT22;4049;49.468;11.200;2023-02-28T07:41:46;-2.60;99.90
8008;DHT22;4049;49.468;11.200;2023-02-28T07:44:12;-2.60;99.90
8008;DHT22;4049;49.468;11.200;2023-02-28T07:46:39;-2.50;99.90
8008;DHT22;4049;49.468;11.200;2023-02-28T07:49:06;-2.40;99.90
8008;DHT22;4049;49.468;11.200;2023-02-28T07:51:34;-2.40;99.90
8008;DHT22;4049;49.468;11.200;2023-02-28T07:54:01;-2.20;99.90
8008;DHT22;4049;49.468;11.200;2023-02-28T07:56:28;-2.20;99.90
8008;DHT22;4049;49.468;11.200;2023-02-28T07:58:55;-2.10;99.90
8008;DHT22;4049;49.468;11.200;2023-02-28T08:01:22;-2.10;99.90
8008;DHT22;4049;49.468;11.200;2023-02-28T08:03:49;-2.00;99.90
8008;DHT22;4049;49.468;11.200;2023-02-28T08:06:18;-1.90;99.90
8008;DHT22;4049;49.468;11.200;2023-02-28T08:08:46;-1.80;99.90
8008;DHT22;4049;49.468;11.200;2023-02-28T08:11:14;-1.70;99.90
8008;DHT22;4049;49.468;11.200;2023-02-28T08:13:41;-1.70;99.90
8008;DHT22;4049;49.468;11.200;2023-02-28T08:16:10;-1.60;99.90
8008;DHT22;4049;49.468;11.200;2023-02-28T08:18:37;-1.60;99.90
8008;DHT22;4049;49.468;11.200;2023-02-28T08:21:07;-1.40;99.90
8008;DHT22;4049;49.468;11.200;2023-02-28T08:23:34;-1.40;99.90
8008;DHT22;4049;49.468;11.200;2023-02-28T08:26:03;-1.30;99.90
8008;DHT22;4049;49.468;11.200;2023-02-28T08:28:30;-1.20;99.90
8008;DHT22;4049;49.468;11.200;2023-02-28T08:30:58;-1.10;99.90
8008;DHT22;4049;49.468;11.200;2023-02-28T08:33:25;-1.00;99.90
8008;DHT22;4049;49.468;11.200;2023-02-28T08:35:53;-0.90;99.90
8008;DHT22;4049;49.468;11.200;2023-02-28T08:38:21;-0.90;99.90
8008;DHT22;4049;49.468;11.200;2023-02-28T08:40:48;-0.70;99.90
8008;DHT22;4049;49.468;11.200;2023-02-28T08:43:16;-0.70;99.90
8008;DHT22;4049;49.468;11.200;2023-02-28T08:45:43;-0.60;99.90
8008;DHT22;4049;49.468;11.200;2023-02-28T08:48:10;-0.50;99.90
8008;DHT22;4049;49.468;11.200;2023-02-28T08:50:36;-0.30;99.90
8008;DHT22;4049;49.468;11.200;2023-02-28T08:53:03;-0.20;99.90
8008;DHT22;4049;49.468;11.200;2023-02-28T08:55:30;-0.20;99.90
8008;DHT22;4049;49.468;11.200;2023-02-28T08:57:57;-0.10;99.90
8008;DHT22;4049;49.468;11.200;2023-02-28T09:00:26;0.00;99.90
8008;DHT22;4049;49.468;11.200;2023-02-28T09:02:53;0.00;99.90
8008;DHT22;4049;49.468;11.200;2023-02-28T09:05:20;0.10;99.90
8008;DHT22;4049;49.468;11.200;2023-02-28T09:07:47;0.10;99.90
8008;DHT22;4049;49.468;11.200;2023-02-28T09:10:13;0.30;99.90
8008;DHT22;4049;49.468;11.200;2023-02-28T09:12:41;0.30;99.90
8008;DHT22;4049;49.468;11.200;2023-02-28T09:15:09;0.30;99.90
8008;DHT22;4049;49.468;11.200;2023-02-28T09:17:37;0.30;99.90
8008;DHT22;4049;49.468;11.200;2023-02-28T09:20:05;0.30;99.90
8008;DHT22;4049;49.468;11.200;2023-02-28T09:22:32;0.40;99.90
8008;DHT22;4049;49.468;11.200;2023-02-28T09:24:59;0.50;99.90
8008;DHT22;4049;49.468;11.200;2023-02-28T09:27:25;0.50;99.90
8008;DHT22;4049;49.468;11.200;2023-02-28T09:29:52;0.60;99.90
8008;DHT22;4049;49.468;11.200;2023-02-28T09:32:19;0.60;99.90
8008;DHT22;4049;49.468;11.200;2023-02-28T09:34:47;0.60;99.90
8008;DHT22;4049;49.468;11.200;2023-02-28T09:37:14;0.60;99.90
8008;DHT22;4049;49.468;11.200;2023-02-28T09:39:41;0.60;99.90
8008;DHT22;4049;49.468;11.200;2023-02-28T09:42:18;0.70;99.90
8008;DHT22;4049;49.468;11.200;2023-02-28T09:44:48;0.80;99.90
8008;DHT22;4049;49.468;11.200;2023-02-28T09:47:27;0.90;99.90
8008;DHT22;4049;49.468;11.200;2023-02-28T09:49:58;1.00;99.90
8008;DHT22;4049;49.468;11.200;2023-02-28T09:52:30;1.10;99.90
8008;DHT22;4049;49.468;11.200;2023-02-28T09:55:04;1.20;99.90
8008;DHT22;4049;49.468;11.200;2023-02-28T09:57:40;1.30;99.90
8008;DHT22;4049;49.468;11.200;2023-02-28T10:00:13;1.40;99.90
8008;DHT22;4049;49.468;11.200;2023-02-28T10:02:52;1.50;99.90
8008;DHT22;4049;49.468;11.200;2023-02-28T10:05:23;1.60;99.90
8008;DHT22;4049;49.468;11.200;2023-02-28T10:08:05;1.70;99.90
8008;DHT22;4049;49.468;11.200;2023-02-28T10:10:37;1.80;99.90
8008;DHT22;4049;49.468;11.200;2023-02-28T10:13:15;1.80;99.90
8008;DHT22;4049;49.468;11.200;2023-02-28T10:15:45;1.90;99.90
8008;DHT22;4049;49.468;11.200;2023-02-28T10:18:16;1.90;99.90
8008;DHT22;4049;49.468;11.200;2023-02-28T10:20:49;1.90;99.90
8008;DHT22;4049;49.468;11.200;2023-02-28T10:23:21;1.90;99.90
8008;DHT22;4049;49.468;11.200;2023-02-28T10:25:54;2.00;99.90
8008;DHT22;4049;49.468;11.200;2023-02-28T10:28:21;2.00;99.90
8008;DHT22;4049;49.468;11.200;2023-02-28T10:30:50;2.20;99.90
8008;DHT22;4049;49.468;11.200;2023-02-28T10:33:22;2.30;99.90
8008;DHT22;4049;49.468;11.200;2023-02-28T10:35:51;2.40;99.90
8008;DHT22;4049;49.468;11.200;2023-02-28T10:38:20;2.50;99.90
8008;DHT22;4049;49.468;11.200;2023-02-28T10:40:47;2.60;99.90
8008;DHT22;4049;49.468;11.200;2023-02-28T10:43:21;2.70;99.90
8008;DHT22;4049;49.468;11.200;2023-02-28T10:45:55;2.80;99.90
8008;DHT22;4049;49.468;11.200;2023-02-28T10:48:30;3.00;99.90
8008;DHT22;4049;49.468;11.200;2023-02-28T10:51:00;3.10;99.90
8008;DHT22;4049;49.468;11.200;2023-02-28T10:53:33;3.20;99.90
8008;DHT22;4049;49.468;11.200;2023-02-28T10:56:02;3.30;99.90
8008;DHT22;4049;49.468;11.200;2023-02-28T10:58:32;3.50;99.90
8008;DHT22;4049;49.468;11.200;2023-02-28T11:01:13;3.60;99.90
8008;DHT22;4049;49.468;11.200;2023-02-28T11:03:40;3.80;99.90
8008;DHT22;4049;49.468;11.200;2023-02-28T11:06:14;3.90;99.90
8008;DHT22;4049;49.468;11.200;2023-02-28T11:08:47;4.10;99.90
8008;DHT22;4049;49.468;11.200;2023-02-28T11:11:16;4.20;99.90
8008;DHT22;4049;49.468;11.200;2023-02-28T11:13:45;4.40;99.90
8008;DHT22;4049;49.468;11.200;2023-02-28T11:16:14;4.60;99.90
8008;DHT22;4049;49.468;11.200;2023-02-28T11:18:46;4.70;98.30
8008;DHT22;4049;49.468;11.200;2023-02-28T11:21:21;4.80;98.80
8008;DHT22;4049;49.468;11.200;2023-02-28T11:23:50;5.10;98.00
8008;DHT22;4049;49.468;11.200;2023-02-28T11:26:36;5.30;98.40
8008;DHT22;4049;49.468;11.200;2023-02-28T11:29:11;5.50;96.20
8008;DHT22;4049;49.468;11.200;2023-02-28T11:31:38;5.70;94.70
8008;DHT22;4049;49.468;11.200;2023-02-28T11:34:23;5.80;91.60
8008;DHT22;4049;49.468;11.200;2023-02-28T11:36:54;5.90;91.30
8008;DHT22;4049;49.468;11.200;2023-02-28T11:39:23;5.90;86.80
8008;DHT22;4049;49.468;11.200;2023-02-28T11:42:04;5.90;85.70
8008;DHT22;4049;49.468;11.200;2023-02-28T11:44:43;6.00;86.90
8008;DHT22;4049;49.468;11.200;2023-02-28T11:47:20;6.20;89.00
8008;DHT22;4049;49.468;11.200;2023-02-28T11:50:01;6.40;85.70
8008;DHT22;4049;49.468;11.200;2023-02-28T11:52:38;6.60;79.30
8008;DHT22;4049;49.468;11.200;2023-02-28T11:55:14;6.80;76.20
8008;DHT22;4049;49.468;11.200;2023-02-28T11:57:55;7.00;81.00
8008;DHT22;4049;49.468;11.200;2023-02-28T12:00:38;7.30;76.40
8008;DHT22;4049;49.468;11.200;2023-02-28T12:03:15;7.40;72.90
8008;DHT22;4049;49.468;11.200;2023-02-28T12:05:46;7.50;72.20
8008;DHT22;4049;49.468;11.200;2023-02-28T12:08:29;7.60;67.20
8008;DHT22;4049;49.468;11.200;2023-02-28T12:11:06;7.80;67.80
8008;DHT22;4049;49.468;11.200;2023-02-28T12:13:43;7.80;63.50
8008;DHT22;4049;49.468;11.200;2023-02-28T12:16:31;7.80;62.20
8008;DHT22;4049;49.468;11.200;2023-02-28T12:19:10;7.70;59.60
8008;DHT22;4049;49.468;11.200;2023-02-28T12:21:52;7.70;60.10
8008;DHT22;4049;49.468;11.200;2023-02-28T12:24:42;7.80;61.80
8008;DHT22;4049;49.468;11.200;2023-02-28T12:27:15;7.90;58.90
8008;DHT22;4049;49.468;11.200;2023-02-28T12:29:47;8.10;60.20
8008;DHT22;4049;49.468;11.200;2023-02-28T12:32:18;8.00;58.30
8008;DHT22;4049;49.468;11.200;2023-02-28T12:34:49;8.10;59.60
8008;DHT22;4049;49.468;11.200;2023-02-28T12:37:20;8.10;59.00
8008;DHT22;4049;49.468;11.200;2023-02-28T12:39:54;8.10;58.60
8008;DHT22;4049;49.468;11.200;2023-02-28T12:42:27;8.10;57.60
8008;DHT22;4049;49.468;11.200;2023-02-28T12:44:59;8.00;57.30
8008;DHT22;4049;49.468;11.200;2023-02-28T12:47:27;8.00;58.30
8008;DHT22;4049;49.468;11.200;2023-02-28T12:49:58;7.90;57.90
8008;DHT22;4049;49.468;11.200;2023-02-28T12:52:31;7.80;57.40
8008;DHT22;4049;49.468;11.200;2023-02-28T12:55:07;7.60;56.10
8008;DHT22;4049;49.468;11.200;2023-02-28T12:57:44;7.50;56.60
8008;DHT22;4049;49.468;11.200;2023-02-28T13:00:16;7.50;58.00
8008;DHT22;4049;49.468;11.200;2023-02-28T13:03:00;7.50;58.60
8008;DHT22;4049;49.468;11.200;2023-02-28T13:05:56;7.50;57.70
8008;DHT22;4049;49.468;11.200;2023-02-28T13:08:41;7.50;58.50
8008;DHT22;4049;49.468;11.200;2023-02-28T13:11:25;7.40;58.40
8008;DHT22;4049;49.468;11.200;2023-02-28T13:13:59;7.40;59.30
8008;DHT22;4049;49.468;11.200;2023-02-28T13:16:26;7.40;59.10
8008;DHT22;4049;49.468;11.200;2023-02-28T13:19:08;7.40;58.50
8008;DHT22;4049;49.468;11.200;2023-02-28T13:21:42;7.40;61.00
8008;DHT22;4049;49.468;11.200;2023-02-28T13:24:10;7.40;60.10
8008;DHT22;4049;49.468;11.200;2023-02-28T13:27:12;7.30;57.70
8008;DHT22;4049;49.468;11.200;2023-02-28T13:29:50;7.20;59.30
8008;DHT22;4049;49.468;11.200;2023-02-28T13:32:34;7.20;56.40
8008;DHT22;4049;49.468;11.200;2023-02-28T13:35:42;7.10;58.70
8008;DHT22;4049;49.468;11.200;2023-02-28T13:38:35;7.20;58.70
8008;DHT22;4049;49.468;11.200;2023-02-28T13:44:09;7.10;59.80
8008;DHT22;4049;49.468;11.200;2023-02-28T13:49:42;7.20;60.10
8008;DHT22;4049;49.468;11.200;2023-02-28T13:52:14;7.30;59.00
8008;DHT22;4049;49.468;11.200;2023-02-28T13:54:56;7.40;59.50
8008;DHT22;4049;49.468;11.200;2023-02-28T13:57:33;7.50;59.60
8008;DHT22;4049;49.468;11.200;2023-02-28T14:00:18;7.60;59.90
8008;DHT22;4049;49.468;11.200;2023-02-28T14:03:06;7.80;59.00
8008;DHT22;4049;49.468;11.200;2023-02-28T14:05:36;7.90;58.70
8008;DHT22;4049;49.468;11.200;2023-02-28T14:08:08;8.10;57.70
8008;DHT22;4049;49.468;11.200;2023-02-28T14:10:42;8.20;57.30
8008;DHT22;4049;49.468;11.200;2023-02-28T14:13:38;8.40;57.30
8008;DHT22;4049;49.468;11.200;2023-02-28T14:16:12;8.70;55.50
8008;DHT22;4049;49.468;11.200;2023-02-28T14:18:42;8.80;54.50
8008;DHT22;4049;49.468;11.200;2023-02-28T14:21:21;8.90;53.60
8008;DHT22;4049;49.468;11.200;2023-02-28T14:24:19;9.00;53.80
8008;DHT22;4049;49.468;11.200;2023-02-28T14:27:05;9.10;52.40
8008;DHT22;4049;49.468;11.200;2023-02-28T14:29:47;9.30;52.10
8008;DHT22;4049;49.468;11.200;2023-02-28T14:32:26;9.40;52.30
8008;DHT22;4049;49.468;11.200;2023-02-28T14:34:58;9.60;52.40
8008;DHT22;4049;49.468;11.200;2023-02-28T14:37:29;9.70;50.30
8008;DHT22;4049;49.468;11.200;2023-02-28T14:39:57;9.70;51.00
8008;DHT22;4049;49.468;11.200;2023-02-28T14:42:30;9.80;51.50
8008;DHT22;4049;49.468;11.200;2023-02-28T14:44:57;9.80;50.70
8008;DHT22;4049;49.468;11.200;2023-02-28T14:47:28;9.70;49.60
8008;DHT22;4049;49.468;11.200;2023-02-28T14:49:57;9.70;49.70
8008;DHT22;4049;49.468;11.200;2023-02-28T14:52:26;9.50;49.50
8008;DHT22;4049;49.468;11.200;2023-02-28T14:54:57;9.30;49.20
8008;DHT22;4049;49.468;11.200;2023-02-28T14:57:26;9.40;50.60
8008;DHT22;4049;49.468;11.200;2023-02-28T15:00:02;9.40;50.90
8008;DHT22;4049;49.468;11.200;2023-02-28T15:02:34;9.20;50.40
8008;DHT22;4049;49.468;11.200;2023-02-28T15:05:16;9.00;50.20
8008;DHT22;4049;49.468;11.200;2023-02-28T15:07:47;8.80;50.50
8008;DHT22;4049;49.468;11.200;2023-02-28T15:10:18;8.70;50.70
8008;DHT22;4049;49.468;11.200;2023-02-28T15:12:50;8.60;51.60
8008;DHT22;4049;49.468;11.200;2023-02-28T15:15:18;8.50;51.30
8008;DHT22;4049;49.468;11.200;2023-02-28T15:17:51;8.40;52.10
8008;DHT22;4049;49.468;11.200;2023-02-28T15:20:19;8.20;51.30
8008;DHT22;4049;49.468;11.200;2023-02-28T15:22:49;8.10;52.10
8008;DHT22;4049;49.468;11.200;2023-02-28T15:25:19;8.00;53.00
8008;DHT22;4049;49.468;11.200;2023-02-28T15:27:48;7.90;52.70
8008;DHT22;4049;49.468;11.200;2023-02-28T15:30:18;7.70;52.80
8008;DHT22;4049;49.468;11.200;2023-02-28T15:35:40;7.60;53.50
8008;DHT22;4049;49.468;11.200;2023-02-28T15:38:16;7.30;53.90
8008;DHT22;4049;49.468;11.200;2023-02-28T15:40:45;7.30;54.00
8008;DHT22;4049;49.468;11.200;2023-02-28T15:43:24;7.10;54.10
8008;DHT22;4049;49.468;11.200;2023-02-28T15:45:52;7.00;55.00
8008;DHT22;4049;49.468;11.200;2023-02-28T15:48:22;6.90;54.70
8008;DHT22;4049;49.468;11.200;2023-02-28T15:50:52;6.80;55.10
8008;DHT22;4049;49.468;11.200;2023-02-28T15:53:23;6.70;56.00
8008;DHT22;4049;49.468;11.200;2023-02-28T15:55:57;6.50;55.90
8008;DHT22;4049;49.468;11.200;2023-02-28T15:58:25;6.40;56.30
8008;DHT22;4049;49.468;11.200;2023-02-28T16:01:07;6.30;56.80
8008;DHT22;4049;49.468;11.200;2023-02-28T16:03:44;6.10;56.70
8008;DHT22;4049;49.468;11.200;2023-02-28T16:06:38;6.00;57.70
8008;DHT22;4049;49.468;11.200;2023-02-28T16:09:10;5.90;57.90
8008;DHT22;4049;49.468;11.200;2023-02-28T16:11:40;5.80;58.40
8008;DHT22;4049;49.468;11.200;2023-02-28T16:14:14;5.70;58.50
8008;DHT22;4049;49.468;11.200;2023-02-28T16:16:43;5.60;58.90
8008;DHT22;4049;49.468;11.200;2023-02-28T16:19:11;5.50;59.50
8008;DHT22;4049;49.468;11.200;2023-02-28T16:21:39;5.40;59.60
8008;DHT22;4049;49.468;11.200;2023-02-28T16:24:07;5.30;60.60
8008;DHT22;4049;49.468;11.200;2023-02-28T16:26:35;5.10;60.50
8008;DHT22;4049;49.468;11.200;2023-02-28T16:29:04;5.00;62.10